Time,TemperatureF,DewpointF,PressureIn,WindDirection,WindDirectionDegrees,WindSpeedMPH,WindSpeedGustMPH,Humidity,HourlyPrecipIn,Conditions,Clouds,dailyrainin,SoftwareType,DateUTC
2013-10-21 00:00:00,31.4,27.4,29.89,North,0,13.0,18.0,85,0.00,,---,0.00,VWS V14.01,2013-10-21 06:00:00,
2013-10-21 00:10:00,30.8,27.4,29.90,North,0,9.0,14.0,87,0.00,,---,0.00,VWS V14.01,2013-10-21 06:10:00,
2013-10-21 00:20:00,30.3,27.2,29.90,North,0,3.0,7.0,88,0.00,,---,0.00,VWS V14.01,2013-10-21 06:20:00,
2013-10-21 00:30:00,30.4,27.3,29.90,North,0,0.0,5.0,88,0.00,,---,0.00,VWS V14.01,2013-10-21 06:30:00,
2013-10-21 00:40:00,30.8,27.7,29.89,North,0,0.0,0.0,88,0.00,,---,0.00,VWS V14.01,2013-10-21 06:40:00,
2013-10-21 00:50:00,31.0,27.6,29.89,North,0,0.0,0.0,87,0.00,,---,0.00,VWS V14.01,2013-10-21 06:50:00,
2013-10-21 01:00:00,30.7,26.7,29.89,North,0,0.0,0.0,85,0.00,,---,0.00,VWS V14.01,2013-10-21 07:00:00,
2013-10-21 01:10:00,30.5,26.5,29.88,North,0,0.0,0.0,85,0.00,,---,0.00,VWS V14.01,2013-10-21 07:10:00,
2013-10-21 01:20:00,30.5,26.2,29.88,North,0,0.0,0.0,84,0.00,,---,0.00,VWS V14.01,2013-10-21 07:20:00,
2013-10-21 01:30:00,31.0,26.7,29.88,North,0,0.0,0.0,84,0.00,,---,0.00,VWS V14.01,2013-10-21 07:30:00,
2013-10-21 01:40:00,30.8,26.3,29.89,North,0,0.0,0.0,83,0.00,,---,0.00,VWS V14.01,2013-10-21 07:40:00,
2013-10-21 01:50:00,30.1,25.6,29.91,North,0,0.0,0.0,83,0.00,,---,0.00,VWS V14.01,2013-10-21 07:50:00,
2013-10-21 02:00:00,29.5,25.6,29.91,North,0,0.0,0.0,85,0.00,,---,0.00,VWS V14.01,2013-10-21 08:00:00,
2013-10-21 02:10:00,29.5,25.8,29.90,North,0,0.0,0.0,86,0.00,,---,0.00,VWS V14.01,2013-10-21 08:10:00,
2013-10-21 02:20:00,29.1,25.4,29.90,North,0,0.0,0.0,86,0.00,,---,0.00,VWS V14.01,2013-10-21 08:20:00,
2013-10-21 02:30:00,28.8,25.1,29.90,North,0,0.0,0.0,86,0.00,,---,0.00,VWS V14.01,2013-10-21 08:30:00,
2013-10-21 02:40:00,28.9,25.5,29.90,North,0,0.0,0.0,87,0.00,,---,0.00,VWS V14.01,2013-10-21 08:40:00,
2013-10-21 02:50:00,29.1,25.4,29.90,North,0,0.0,0.0,86,0.00,,---,0.00,VWS V14.01,2013-10-21 08:50:00,
2013-10-21 03:00:00,28.9,25.2,29.90,North,0,0.0,0.0,86,0.00,,---,0.00,VWS V14.01,2013-10-21 09:00:00,
2013-10-21 03:10:00,28.9,25.2,29.92,North,0,0.0,0.0,86,0.00,,---,0.00,VWS V14.01,2013-10-21 09:10:00,
2013-10-21 03:20:00,28.7,25.0,29.92,North,0,0.0,0.0,86,0.00,,---,0.00,VWS V14.01,2013-10-21 09:20:00,
2013-10-21 03:30:00,28.2,24.3,29.92,North,0,0.0,0.0,85,0.00,,---,0.00,VWS V14.01,2013-10-21 09:30:00,
2013-10-21 03:40:00,27.8,24.2,29.92,North,0,0.0,0.0,86,0.00,,---,0.00,VWS V14.01,2013-10-21 09:40:00,
2013-10-21 03:50:00,27.3,23.7,29.93,North,0,0.0,0.0,86,0.00,,---,0.00,VWS V14.01,2013-10-21 09:50:00,
2013-10-21 04:00:00,28.0,24.6,29.92,North,0,0.0,0.0,87,0.00,,---,0.00,VWS V14.01,2013-10-21 10:00:00,
2013-10-21 04:10:00,29.0,25.6,29.94,North,0,0.0,0.0,87,0.00,,---,0.00,VWS V14.01,2013-10-21 10:10:00,
2013-10-21 04:20:00,28.9,25.2,29.94,North,0,0.0,0.0,86,0.00,,---,0.00,VWS V14.01,2013-10-21 10:20:00,
2013-10-21 04:30:00,28.7,24.8,29.94,North,0,0.0,0.0,85,0.00,,---,0.00,VWS V14.01,2013-10-21 10:30:00,
2013-10-21 04:40:00,28.2,24.3,29.94,North,0,0.0,0.0,85,0.00,,---,0.00,VWS V14.01,2013-10-21 10:40:00,
2013-10-21 04:50:00,28.3,24.7,29.94,North,0,0.0,0.0,86,0.00,,---,0.00,VWS V14.01,2013-10-21 10:50:00,
2013-10-21 05:00:00,28.9,25.0,29.95,North,0,0.0,0.0,85,0.00,,---,0.00,VWS V14.01,2013-10-21 11:00:00,
2013-10-21 05:10:00,30.7,25.6,29.97,North,0,3.0,11.0,81,0.00,,---,0.00,VWS V14.01,2013-10-21 11:10:00,
2013-10-21 05:20:00,29.5,24.7,29.98,North,0,1.0,9.0,82,0.00,,---,0.00,VWS V14.01,2013-10-21 11:20:00,
2013-10-21 05:30:00,28.4,23.6,29.99,North,0,0.0,0.0,82,0.00,,---,0.00,VWS V14.01,2013-10-21 11:30:00,
2013-10-21 05:40:00,28.1,23.6,30.01,North,0,0.0,0.0,83,0.00,,---,0.00,VWS V14.01,2013-10-21 11:40:00,
2013-10-21 05:50:00,27.5,22.7,30.02,North,0,0.0,0.0,82,0.00,,---,0.00,VWS V14.01,2013-10-21 11:50:00,
2013-10-21 06:00:00,26.9,22.4,30.02,North,0,0.0,0.0,83,0.00,,---,0.00,VWS V14.01,2013-10-21 12:00:00,
2013-10-21 06:10:00,26.9,22.4,30.06,North,0,4.0,11.0,83,0.00,,---,0.00,VWS V14.01,2013-10-21 12:10:00,
2013-10-21 06:20:00,26.6,22.4,30.06,North,0,6.0,10.0,84,0.00,,---,0.00,VWS V14.01,2013-10-21 12:20:00,
2013-10-21 06:30:00,27.0,22.8,30.06,North,0,4.0,10.0,84,0.00,,---,0.00,VWS V14.01,2013-10-21 12:30:00,
2013-10-21 06:40:00,27.6,22.8,30.05,North,0,8.0,14.0,82,0.00,,---,0.00,VWS V14.01,2013-10-21 12:40:00,
2013-10-21 06:50:00,28.1,22.4,30.04,North,0,13.0,16.0,79,0.00,,---,0.00,VWS V14.01,2013-10-21 12:50:00,
2013-10-21 07:00:00,28.1,22.1,30.03,North,0,12.0,16.0,78,0.00,,---,0.00,VWS V14.01,2013-10-21 13:00:00,
2013-10-21 07:10:00,27.2,21.6,30.07,North,0,11.0,14.0,79,0.00,,---,0.00,VWS V14.01,2013-10-21 13:10:00,
2013-10-21 07:20:00,26.6,21.0,30.07,NNW,338,8.0,12.0,79,0.00,,---,0.00,VWS V14.01,2013-10-21 13:20:00,
2013-10-21 07:30:00,26.4,20.8,30.09,NNW,338,8.0,12.0,79,0.00,,---,0.00,VWS V14.01,2013-10-21 13:30:00,
2013-10-21 07:40:00,27.0,21.4,30.07,NW,315,10.0,15.0,79,0.00,,---,0.00,VWS V14.01,2013-10-21 13:40:00,
2013-10-21 07:50:00,28.0,21.7,30.08,NNW,338,11.0,17.0,77,0.00,,---,0.00,VWS V14.01,2013-10-21 13:50:00,
2013-10-21 08:00:00,28.9,22.0,30.06,NNW,338,10.0,15.0,75,0.00,,---,0.00,VWS V14.01,2013-10-21 14:00:00,
2013-10-21 08:10:00,30.0,22.1,30.08,NNW,338,9.0,17.0,72,0.00,,---,0.00,VWS V14.01,2013-10-21 14:10:00,
2013-10-21 08:20:00,30.7,22.1,30.09,NNW,338,9.0,16.0,70,0.00,,---,0.00,VWS V14.01,2013-10-21 14:20:00,
2013-10-21 08:30:00,31.6,21.9,30.07,NNW,338,10.0,16.0,67,0.00,,---,0.00,VWS V14.01,2013-10-21 14:30:00,
2013-10-21 08:40:00,32.4,21.2,30.07,NNW,338,13.0,22.0,63,0.00,,---,0.00,VWS V14.01,2013-10-21 14:40:00,
2013-10-21 08:50:00,33.1,21.5,30.07,NNW,338,15.0,25.0,62,0.00,,---,0.00,VWS V14.01,2013-10-21 14:50:00,
2013-10-21 09:00:00,33.9,21.5,30.06,NNW,338,15.0,21.0,60,0.00,,---,0.00,VWS V14.01,2013-10-21 15:00:00,
2013-10-21 09:10:00,34.8,21.1,30.09,NNW,338,15.0,23.0,57,0.00,,---,0.00,VWS V14.01,2013-10-21 15:10:00,
2013-10-21 09:20:00,35.7,21.1,30.06,NNW,338,14.0,22.0,55,0.00,,---,0.00,VWS V14.01,2013-10-21 15:20:00,
2013-10-21 09:30:00,36.6,20.6,30.05,North,0,13.0,21.0,52,0.00,,---,0.00,VWS V14.01,2013-10-21 15:30:00,
2013-10-21 09:40:00,37.8,20.8,30.06,North,0,13.0,22.0,50,0.00,,---,0.00,VWS V14.01,2013-10-21 15:40:00,
2013-10-21 09:50:00,38.5,20.5,30.05,North,0,13.0,19.0,48,0.00,,---,0.00,VWS V14.01,2013-10-21 15:50:00,
2013-10-21 10:00:00,39.0,19.5,30.03,North,0,12.0,19.0,45,0.00,,---,0.00,VWS V14.01,2013-10-21 16:00:00,
2013-10-21 10:10:00,39.7,18.5,30.02,North,0,15.0,23.0,42,0.00,,---,0.00,VWS V14.01,2013-10-21 16:10:00,
2013-10-21 10:20:00,40.3,19.0,30.02,North,0,15.0,21.0,42,0.00,,---,0.00,VWS V14.01,2013-10-21 16:20:00,
2013-10-21 10:30:00,41.2,18.7,30.00,North,0,13.0,20.0,40,0.00,,---,0.00,VWS V14.01,2013-10-21 16:30:00,
2013-10-21 10:40:00,42.0,20.0,30.00,North,0,13.0,19.0,41,0.00,,---,0.00,VWS V14.01,2013-10-21 16:40:00,
2013-10-21 10:50:00,42.3,19.7,30.00,North,0,14.0,17.0,40,0.00,,---,0.00,VWS V14.01,2013-10-21 16:50:00,
2013-10-21 11:00:00,43.0,19.1,29.98,North,0,10.0,16.0,38,0.00,,---,0.00,VWS V14.01,2013-10-21 17:00:00,
2013-10-21 11:10:00,43.4,18.2,30.03,North,0,10.0,19.0,36,0.00,,---,0.00,VWS V14.01,2013-10-21 17:10:00,
2013-10-21 11:20:00,44.3,17.7,30.03,North,0,8.0,15.0,34,0.00,,---,0.00,VWS V14.01,2013-10-21 17:20:00,
2013-10-21 11:30:00,44.4,17.1,30.02,North,0,8.0,17.0,33,0.00,,---,0.00,VWS V14.01,2013-10-21 17:30:00,
2013-10-21 11:40:00,45.0,17.6,30.01,North,0,9.0,16.0,33,0.00,,---,0.00,VWS V14.01,2013-10-21 17:40:00,
2013-10-21 11:50:00,46.1,16.4,30.01,North,0,13.0,22.0,30,0.00,,---,0.00,VWS V14.01,2013-10-21 17:50:00,
2013-10-21 12:00:00,46.6,16.8,29.99,NNW,338,14.0,22.0,30,0.00,,---,0.00,VWS V14.01,2013-10-21 18:00:00,
2013-10-21 12:10:00,47.3,16.7,29.98,NNW,338,14.0,21.0,29,0.00,,---,0.00,VWS V14.01,2013-10-21 18:10:00,
2013-10-21 12:20:00,47.4,16.8,29.98,NNW,338,13.0,21.0,29,0.00,,---,0.00,VWS V14.01,2013-10-21 18:20:00,
2013-10-21 12:30:00,47.2,15.8,29.98,North,0,9.0,17.0,28,0.00,,---,0.00,VWS V14.01,2013-10-21 18:30:00,
2013-10-21 12:40:00,48.0,16.5,29.98,North,0,12.0,21.0,28,0.00,,---,0.00,VWS V14.01,2013-10-21 18:40:00,
2013-10-21 12:50:00,48.2,15.8,29.98,North,0,15.0,22.0,27,0.00,,---,0.00,VWS V14.01,2013-10-21 18:50:00,
2013-10-21 13:00:00,46.6,16.8,29.99,NNW,338,14.0,22.0,30,0.00,,---,0.00,VWS V14.01,2013-10-21 19:00:00,
2013-10-21 13:10:00,48.5,16.1,29.96,North,0,17.0,26.0,27,0.00,,---,0.00,VWS V14.01,2013-10-21 19:10:00,
2013-10-21 13:20:00,49.3,15.9,29.96,North,0,17.0,25.0,26,0.00,,---,0.00,VWS V14.01,2013-10-21 19:20:00,
2013-10-21 13:30:00,49.2,14.9,29.95,North,0,17.0,24.0,25,0.00,,---,0.00,VWS V14.01,2013-10-21 19:30:00,
2013-10-21 13:40:00,50.0,15.6,29.93,North,0,15.0,23.0,25,0.00,,---,0.00,VWS V14.01,2013-10-21 19:40:00,
2013-10-21 13:50:00,50.5,16.0,29.92,North,0,14.0,21.0,25,0.00,,---,0.00,VWS V14.01,2013-10-21 19:50:00,
2013-10-21 14:00:00,50.5,15.1,29.92,North,0,13.0,23.0,24,0.00,,---,0.00,VWS V14.01,2013-10-21 20:00:00,
2013-10-21 14:10:00,50.1,15.7,29.94,North,0,15.0,23.0,25,0.00,,---,0.00,VWS V14.01,2013-10-21 20:10:00,
2013-10-21 14:20:00,50.6,16.1,29.93,North,0,17.0,24.0,25,0.00,,---,0.00,VWS V14.01,2013-10-21 20:20:00,
2013-10-21 14:30:00,51.3,16.7,29.91,NNE,22,14.0,21.0,25,0.00,,---,0.00,VWS V14.01,2013-10-21 20:30:00,
2013-10-21 14:40:00,51.5,15.9,29.92,NNE,22,15.0,22.0,24,0.00,,---,0.00,VWS V14.01,2013-10-21 20:40:00,
2013-10-21 14:50:00,52.1,15.4,29.91,NE,45,9.0,18.0,23,0.00,,---,0.00,VWS V14.01,2013-10-21 20:50:00,
2013-10-21 15:00:00,51.7,14.1,29.91,NW,315,7.0,18.0,22,0.00,,---,0.00,VWS V14.01,2013-10-21 21:00:00,
2013-10-21 15:10:00,52.1,13.4,29.92,West,270,10.0,19.0,21,0.00,,---,0.00,VWS V14.01,2013-10-21 21:10:00,
2013-10-21 15:20:00,52.4,14.7,29.92,West,270,11.0,18.0,22,0.00,,---,0.00,VWS V14.01,2013-10-21 21:20:00,
2013-10-21 15:30:00,52.6,12.7,29.92,WNW,292,7.0,17.0,20,0.00,,---,0.00,VWS V14.01,2013-10-21 21:30:00,
2013-10-21 15:40:00,52.1,13.4,29.93,WNW,292,5.0,12.0,21,0.00,,---,0.00,VWS V14.01,2013-10-21 21:40:00,
2013-10-21 15:50:00,49.9,13.6,29.94,West,270,8.0,19.0,23,0.00,,---,0.00,VWS V14.01,2013-10-21 21:50:00,
2013-10-21 16:00:00,50.1,13.8,29.95,West,270,11.0,18.0,23,0.00,,---,0.00,VWS V14.01,2013-10-21 22:00:00,
2013-10-21 16:10:00,50.9,13.4,29.94,WNW,292,11.0,18.0,22,0.00,,---,0.00,VWS V14.01,2013-10-21 22:10:00,
2013-10-21 16:20:00,51.8,14.2,29.94,West,270,9.0,18.0,22,0.00,,---,0.00,VWS V14.01,2013-10-21 22:20:00,
2013-10-21 16:30:00,51.9,14.3,29.94,WNW,292,9.0,16.0,22,0.00,,---,0.00,VWS V14.01,2013-10-21 22:30:00,
2013-10-21 16:40:00,51.8,14.2,29.95,WNW,292,7.0,16.0,22,0.00,,---,0.00,VWS V14.01,2013-10-21 22:40:00,
2013-10-21 16:50:00,51.2,14.7,29.95,NW,315,10.0,29.0,23,0.00,,---,0.00,VWS V14.01,2013-10-21 22:50:00,
2013-10-21 17:00:00,51.0,14.5,29.95,NW,315,6.0,21.0,23,0.00,,---,0.00,VWS V14.01,2013-10-21 23:00:00,
2013-10-21 17:10:00,50.7,15.2,29.97,NW,315,4.0,14.0,24,0.00,,---,0.00,VWS V14.01,2013-10-21 23:10:00,
2013-10-21 17:20:00,50.0,14.6,29.99,NW,315,7.0,14.0,24,0.00,,---,0.00,VWS V14.01,2013-10-21 23:20:00,
2013-10-21 17:30:00,49.5,15.1,29.99,NNW,338,5.0,12.0,25,0.00,,---,0.00,VWS V14.01,2013-10-21 23:30:00,
2013-10-21 17:40:00,47.7,14.5,30.01,NW,315,4.0,12.0,26,0.00,,---,0.00,VWS V14.01,2013-10-21 23:40:00,
2013-10-21 17:50:00,47.1,14.0,30.02,NW,315,7.0,12.0,26,0.00,,---,0.00,VWS V14.01,2013-10-21 23:50:00,
2013-10-21 18:00:00,46.2,14.1,30.03,NW,315,2.0,9.0,27,0.00,,---,0.00,VWS V14.01,2013-10-22 00:00:00,
2013-10-21 18:10:00,46.0,13.9,30.02,NW,315,5.0,14.0,27,0.00,,---,0.00,VWS V14.01,2013-10-22 00:10:00,
2013-10-21 18:20:00,44.5,14.2,30.04,NNW,338,6.0,11.0,29,0.00,,---,0.00,VWS V14.01,2013-10-22 00:20:00,
2013-10-21 18:30:00,45.4,14.2,30.03,NNW,338,8.0,13.0,28,0.00,,---,0.00,VWS V14.01,2013-10-22 00:30:00,
2013-10-21 18:40:00,44.2,14.8,30.05,NNW,338,6.0,12.0,30,0.00,,---,0.00,VWS V14.01,2013-10-22 00:40:00,
2013-10-21 18:50:00,43.2,13.9,30.07,NNW,338,6.0,11.0,30,0.00,,---,0.00,VWS V14.01,2013-10-22 00:50:00,
2013-10-21 19:00:00,43.2,13.9,30.07,NNW,338,7.0,12.0,30,0.00,,---,0.00,VWS V14.01,2013-10-22 01:00:00,
2013-10-21 19:10:00,43.0,14.4,30.05,North,0,8.0,15.0,31,0.00,,---,0.00,VWS V14.01,2013-10-22 01:10:00,
2013-10-21 19:20:00,43.4,14.1,30.06,North,355,6.0,8.0,30,0.00,,---,0.00,VWS V14.01,2013-10-22 01:20:00,
2013-10-21 19:30:00,45.4,14.2,30.03,NNW,338,8.0,13.0,28,0.00,,---,0.00,VWS V14.01,2013-10-22 01:30:00,
2013-10-21 19:31:00,42.0,14.3,30.08,NNW,334,6.0,12.0,32,0.00,,---,0.00,VWS V14.01,2013-10-22 01:31:00,
2013-10-21 19:40:00,44.2,14.8,30.05,NNW,338,6.0,12.0,30,0.00,,---,0.00,VWS V14.01,2013-10-22 01:40:00,
2013-10-21 19:41:00,42.0,15.7,30.08,NNW,346,13.0,15.0,34,0.00,,---,0.00,VWS V14.01,2013-10-22 01:41:00,
2013-10-21 19:50:00,43.2,13.9,30.07,NNW,338,6.0,11.0,30,0.00,,---,0.00,VWS V14.01,2013-10-22 01:50:00,
2013-10-21 19:51:00,41.5,15.2,30.09,North,349,7.0,14.0,34,0.00,,---,0.00,VWS V14.01,2013-10-22 01:51:00,
2013-10-21 20:00:00,43.2,13.9,30.07,NNW,338,7.0,12.0,30,0.00,,---,0.00,VWS V14.01,2013-10-22 02:00:00,
2013-10-21 20:01:00,40.8,15.9,30.09,NNW,338,13.0,15.0,36,0.00,,---,0.00,VWS V14.01,2013-10-22 02:01:00,
2013-10-21 20:10:00,43.0,14.4,30.05,North,0,8.0,15.0,31,0.00,,---,0.00,VWS V14.01,2013-10-22 02:10:00,
2013-10-21 20:11:00,41.5,16.5,30.04,NW,325,9.0,16.0,36,0.00,,---,0.00,VWS V14.01,2013-10-22 02:11:00,
2013-10-21 20:20:00,43.4,14.1,30.06,North,355,6.0,8.0,30,0.00,,---,0.00,VWS V14.01,2013-10-22 02:20:00,
2013-10-21 20:21:00,40.2,16.6,30.06,NW,320,10.0,13.0,38,0.00,,---,0.00,VWS V14.01,2013-10-22 02:21:00,
2013-10-21 20:30:00,42.0,14.3,30.08,NNW,334,6.0,12.0,32,0.00,,---,0.00,VWS V14.01,2013-10-22 02:30:00,
2013-10-21 20:31:00,39.3,17.0,30.09,NW,319,8.0,14.0,40,0.00,,---,0.00,VWS V14.01,2013-10-22 02:31:00,
2013-10-21 20:40:00,42.0,15.7,30.08,NNW,346,13.0,15.0,34,0.00,,---,0.00,VWS V14.01,2013-10-22 02:40:00,
2013-10-21 20:41:00,39.8,17.5,30.07,WNW,294,12.0,17.0,40,0.00,,---,0.00,VWS V14.01,2013-10-22 02:41:00,
2013-10-21 20:50:00,41.5,15.2,30.09,North,349,7.0,14.0,34,0.00,,---,0.00,VWS V14.01,2013-10-22 02:50:00,
2013-10-21 20:51:00,40.1,18.9,30.06,NW,309,10.0,18.0,42,0.00,,---,0.00,VWS V14.01,2013-10-22 02:51:00,
2013-10-21 21:00:00,40.8,15.9,30.09,NNW,338,13.0,15.0,36,0.00,,---,0.00,VWS V14.01,2013-10-22 03:00:00,
2013-10-21 21:01:00,39.9,18.1,30.08,NW,306,4.0,13.0,41,0.00,,---,0.00,VWS V14.01,2013-10-22 03:01:00,
2013-10-21 21:10:00,41.5,16.5,30.04,NW,325,9.0,16.0,36,0.00,,---,0.00,VWS V14.01,2013-10-22 03:10:00,
2013-10-21 21:11:00,38.9,18.3,30.04,NW,306,0.0,6.0,43,0.00,,---,0.00,VWS V14.01,2013-10-22 03:11:00,
2013-10-21 21:20:00,40.2,16.6,30.06,NW,320,10.0,13.0,38,0.00,,---,0.00,VWS V14.01,2013-10-22 03:20:00,
2013-10-21 21:21:00,39.7,19.6,30.03,North,5,11.0,14.0,44,0.00,,---,0.00,VWS V14.01,2013-10-22 03:21:00,
2013-10-21 21:30:00,39.3,17.0,30.09,NW,319,8.0,14.0,40,0.00,,---,0.00,VWS V14.01,2013-10-22 03:30:00,
2013-10-21 21:31:00,41.0,19.7,30.02,NNW,344,9.0,19.0,42,0.00,,---,0.00,VWS V14.01,2013-10-22 03:31:00,
2013-10-21 21:40:00,39.8,17.5,30.07,WNW,294,12.0,17.0,40,0.00,,---,0.00,VWS V14.01,2013-10-22 03:40:00,
2013-10-21 21:41:00,40.1,19.4,30.03,NNW,344,10.0,19.0,43,0.00,,---,0.00,VWS V14.01,2013-10-22 03:41:00,
2013-10-21 21:50:00,40.1,18.9,30.06,NW,309,10.0,18.0,42,0.00,,---,0.00,VWS V14.01,2013-10-22 03:50:00,
2013-10-21 21:51:00,39.8,19.7,30.04,NNW,348,9.0,15.0,44,0.00,,---,0.00,VWS V14.01,2013-10-22 03:51:00,
2013-10-21 22:00:00,39.9,18.1,30.08,NW,306,4.0,13.0,41,0.00,,---,0.00,VWS V14.01,2013-10-22 04:00:00,
2013-10-21 22:01:00,39.2,19.7,30.04,North,360,11.0,16.0,45,0.00,,---,0.00,VWS V14.01,2013-10-22 04:01:00,
2013-10-21 22:10:00,38.9,18.3,30.04,NW,306,0.0,6.0,43,0.00,,---,0.00,VWS V14.01,2013-10-22 04:10:00,
2013-10-21 22:11:00,38.3,19.4,30.02,North,5,10.0,17.0,46,0.00,,---,0.00,VWS V14.01,2013-10-22 04:11:00,
2013-10-21 22:20:00,39.7,19.6,30.03,North,5,11.0,14.0,44,0.00,,---,0.00,VWS V14.01,2013-10-22 04:20:00,
2013-10-21 22:21:00,38.1,18.6,30.03,North,350,7.0,13.0,45,0.00,,---,0.00,VWS V14.01,2013-10-22 04:21:00,
2013-10-21 22:30:00,41.0,19.7,30.02,NNW,344,9.0,19.0,42,0.00,,---,0.00,VWS V14.01,2013-10-22 04:30:00,
2013-10-21 22:31:00,38.5,18.0,30.03,NW,317,4.0,13.0,43,0.00,,---,0.00,VWS V14.01,2013-10-22 04:31:00,
2013-10-21 22:40:00,40.1,19.4,30.03,NNW,344,10.0,19.0,43,0.00,,---,0.00,VWS V14.01,2013-10-22 04:40:00,
2013-10-21 22:41:00,37.4,18.5,30.04,NNW,342,6.0,13.0,46,0.00,,---,0.00,VWS V14.01,2013-10-22 04:41:00,
2013-10-21 22:50:00,39.8,19.7,30.04,NNW,348,9.0,15.0,44,0.00,,---,0.00,VWS V14.01,2013-10-22 04:50:00,
2013-10-21 22:51:00,37.2,18.8,30.05,NNW,331,9.0,13.0,47,0.00,,---,0.00,VWS V14.01,2013-10-22 04:51:00,
2013-10-21 23:00:00,39.2,19.7,30.04,North,360,11.0,16.0,45,0.00,,---,0.00,VWS V14.01,2013-10-22 05:00:00,
2013-10-21 23:01:00,35.9,19.1,30.07,NNW,347,13.0,14.0,50,0.00,,---,0.00,VWS V14.01,2013-10-22 05:01:00,
2013-10-21 23:10:00,38.3,19.4,30.02,North,5,10.0,17.0,46,0.00,,---,0.00,VWS V14.01,2013-10-22 05:10:00,
2013-10-21 23:11:00,37.4,19.5,30.01,North,355,11.0,17.0,48,0.00,,---,0.00,VWS V14.01,2013-10-22 05:11:00,
2013-10-21 23:20:00,38.1,18.6,30.03,North,350,7.0,13.0,45,0.00,,---,0.00,VWS V14.01,2013-10-22 05:20:00,
2013-10-21 23:21:00,36.0,18.2,30.04,NNW,342,9.0,12.0,48,0.00,,---,0.00,VWS V14.01,2013-10-22 05:21:00,
2013-10-21 23:30:00,38.5,18.0,30.03,NW,317,4.0,13.0,43,0.00,,---,0.00,VWS V14.01,2013-10-22 05:30:00,
2013-10-21 23:31:00,36.4,20.5,30.04,NW,325,11.0,15.0,52,0.00,,---,0.00,VWS V14.01,2013-10-22 05:31:00,
2013-10-21 23:40:00,37.4,18.5,30.04,NNW,342,6.0,13.0,46,0.00,,---,0.00,VWS V14.01,2013-10-22 05:40:00,
2013-10-21 23:41:00,36.4,20.5,30.03,NW,325,9.0,13.0,52,0.00,,---,0.00,VWS V14.01,2013-10-22 05:41:00,
2013-10-21 23:50:00,37.2,18.8,30.05,NNW,331,9.0,13.0,47,0.00,,---,0.00,VWS V14.01,2013-10-22 05:50:00,
2013-10-21 23:51:00,36.6,20.6,30.02,NNW,331,13.0,14.0,52,0.00,,---,0.00,VWS V14.01,2013-10-22 05:51:00,